sensor_id;sensor_type;location;lat;lon;timestamp;P1;durP1;ratioP1;P2;durP2;ratioP2
72801;SDS011;61891;55.818;37.084;2023-08-24T00:02:06;5.13;;;3.70;;
72801;SDS011;61891;55.818;37.084;2023-08-24T00:04:32;5.35;;;3.10;;
72801;SDS011;61891;55.818;37.084;2023-08-24T00:06:59;6.72;;;4.15;;
72801;SDS011;61891;55.818;37.084;2023-08-24T00:09:26;7.85;;;3.70;;
72801;SDS011;61891;55.818;37.084;2023-08-24T00:11:52;6.50;;;3.70;;
72801;SDS011;61891;55.818;37.084;2023-08-24T00:14:18;7.63;;;3.80;;
72801;SDS011;61891;55.818;37.084;2023-08-24T00:16:45;7.45;;;3.83;;
72801;SDS011;61891;55.818;37.084;2023-08-24T00:19:11;5.53;;;3.85;;
72801;SDS011;61891;55.818;37.084;2023-08-24T00:21:36;4.93;;;3.22;;
72801;SDS011;61891;55.818;37.084;2023-08-24T00:24:02;6.18;;;4.05;;
72801;SDS011;61891;55.818;37.084;2023-08-24T00:26:28;4.70;;;3.90;;
72801;SDS011;61891;55.818;37.084;2023-08-24T00:28:54;7.60;;;3.95;;
72801;SDS011;61891;55.818;37.084;2023-08-24T00:31:20;7.57;;;3.85;;
72801;SDS011;61891;55.818;37.084;2023-08-24T00:33:48;6.70;;;4.18;;
72801;SDS011;61891;55.818;37.084;2023-08-24T00:36:16;7.50;;;4.05;;
72801;SDS011;61891;55.818;37.084;2023-08-24T00:38:44;6.30;;;3.88;;
72801;SDS011;61891;55.818;37.084;2023-08-24T00:41:13;6.00;;;3.97;;
72801;SDS011;61891;55.818;37.084;2023-08-24T00:43:39;6.60;;;4.30;;
72801;SDS011;61891;55.818;37.084;2023-08-24T00:46:06;7.65;;;4.50;;
72801;SDS011;61891;55.818;37.084;2023-08-24T00:48:32;6.22;;;4.22;;
72801;SDS011;61891;55.818;37.084;2023-08-24T00:50:59;6.57;;;4.55;;
72801;SDS011;61891;55.818;37.084;2023-08-24T00:53:26;6.90;;;4.25;;
72801;SDS011;61891;55.818;37.084;2023-08-24T00:55:54;6.05;;;4.18;;
72801;SDS011;61891;55.818;37.084;2023-08-24T00:58:20;6.38;;;4.30;;
72801;SDS011;61891;55.818;37.084;2023-08-24T01:00:47;5.85;;;4.22;;
72801;SDS011;61891;55.818;37.084;2023-08-24T01:03:16;6.15;;;4.20;;
72801;SDS011;61891;55.818;37.084;2023-08-24T01:05:43;7.65;;;4.43;;
72801;SDS011;61891;55.818;37.084;2023-08-24T01:08:11;7.85;;;4.47;;
72801;SDS011;61891;55.818;37.084;2023-08-24T01:13:51;7.03;;;4.40;;
72801;SDS011;61891;55.818;37.084;2023-08-24T01:16:20;7.72;;;4.55;;
72801;SDS011;61891;55.818;37.084;2023-08-24T01:18:56;7.97;;;4.53;;
72801;SDS011;61891;55.818;37.084;2023-08-24T01:21:25;8.18;;;4.28;;
72801;SDS011;61891;55.818;37.084;2023-08-24T01:26:36;7.80;;;4.63;;
72801;SDS011;61891;55.818;37.084;2023-08-24T01:29:04;6.90;;;4.25;;
72801;SDS011;61891;55.818;37.084;2023-08-24T01:31:30;8.63;;;4.00;;
72801;SDS011;61891;55.818;37.084;2023-08-24T01:33:56;6.30;;;4.20;;
72801;SDS011;61891;55.818;37.084;2023-08-24T01:36:22;5.75;;;3.95;;
72801;SDS011;61891;55.818;37.084;2023-08-24T01:38:53;5.78;;;4.00;;
72801;SDS011;61891;55.818;37.084;2023-08-24T01:41:32;7.57;;;3.97;;
72801;SDS011;61891;55.818;37.084;2023-08-24T01:44:04;6.15;;;3.72;;
72801;SDS011;61891;55.818;37.084;2023-08-24T01:46:33;6.28;;;4.15;;
72801;SDS011;61891;55.818;37.084;2023-08-24T01:49:00;7.60;;;4.05;;
72801;SDS011;61891;55.818;37.084;2023-08-24T01:51:28;6.35;;;4.35;;
72801;SDS011;61891;55.818;37.084;2023-08-24T01:53:55;7.00;;;4.30;;
72801;SDS011;61891;55.818;37.084;2023-08-24T01:56:22;9.25;;;4.70;;
72801;SDS011;61891;55.818;37.084;2023-08-24T01:58:48;7.88;;;4.18;;
72801;SDS011;61891;55.818;37.084;2023-08-24T02:01:14;7.85;;;4.68;;
72801;SDS011;61891;55.818;37.084;2023-08-24T02:03:40;8.15;;;4.40;;
72801;SDS011;61891;55.818;37.084;2023-08-24T02:06:06;8.25;;;4.43;;
72801;SDS011;61891;55.818;37.084;2023-08-24T02:08:32;7.40;;;4.38;;
72801;SDS011;61891;55.818;37.084;2023-08-24T02:10:58;7.03;;;4.18;;
72801;SDS011;61891;55.818;37.084;2023-08-24T02:13:24;6.65;;;4.70;;
72801;SDS011;61891;55.818;37.084;2023-08-24T02:15:50;8.02;;;4.60;;
72801;SDS011;61891;55.818;37.084;2023-08-24T02:18:16;6.90;;;4.22;;
72801;SDS011;61891;55.818;37.084;2023-08-24T02:20:42;7.90;;;4.43;;
72801;SDS011;61891;55.818;37.084;2023-08-24T02:23:07;7.93;;;4.65;;
72801;SDS011;61891;55.818;37.084;2023-08-24T02:25:33;7.75;;;4.47;;
72801;SDS011;61891;55.818;37.084;2023-08-24T02:27:59;8.05;;;4.65;;
72801;SDS011;61891;55.818;37.084;2023-08-24T02:30:25;8.25;;;4.60;;
72801;SDS011;61891;55.818;37.084;2023-08-24T02:35:17;6.35;;;4.32;;
72801;SDS011;61891;55.818;37.084;2023-08-24T02:37:43;7.43;;;4.47;;
72801;SDS011;61891;55.818;37.084;2023-08-24T02:40:11;7.55;;;4.97;;
72801;SDS011;61891;55.818;37.084;2023-08-24T02:42:37;8.48;;;4.57;;
72801;SDS011;61891;55.818;37.084;2023-08-24T02:45:03;7.35;;;4.85;;
72801;SDS011;61891;55.818;37.084;2023-08-24T02:47:32;8.27;;;4.88;;
72801;SDS011;61891;55.818;37.084;2023-08-24T02:49:58;7.68;;;4.72;;
72801;SDS011;61891;55.818;37.084;2023-08-24T02:52:24;8.90;;;4.53;;
72801;SDS011;61891;55.818;37.084;2023-08-24T02:54:50;8.93;;;5.20;;
72801;SDS011;61891;55.818;37.084;2023-08-24T02:57:16;11.75;;;5.88;;
72801;SDS011;61891;55.818;37.084;2023-08-24T02:59:42;9.18;;;5.55;;
72801;SDS011;61891;55.818;37.084;2023-08-24T03:02:10;9.57;;;5.13;;
72801;SDS011;61891;55.818;37.084;2023-08-24T03:04:36;9.00;;;5.00;;
72801;SDS011;61891;55.818;37.084;2023-08-24T03:07:02;11.18;;;5.07;;
72801;SDS011;61891;55.818;37.084;2023-08-24T03:09:29;10.98;;;5.43;;
72801;SDS011;61891;55.818;37.084;2023-08-24T03:11:56;8.82;;;4.95;;
72801;SDS011;61891;55.818;37.084;2023-08-24T03:14:22;10.18;;;5.22;;
72801;SDS011;61891;55.818;37.084;2023-08-24T03:16:48;11.13;;;5.88;;
72801;SDS011;61891;55.818;37.084;2023-08-24T03:19:15;12.10;;;5.93;;
72801;SDS011;61891;55.818;37.084;2023-08-24T03:21:43;9.90;;;6.10;;
72801;SDS011;61891;55.818;37.084;2023-08-24T03:26:35;9.00;;;5.50;;
72801;SDS011;61891;55.818;37.084;2023-08-24T03:29:00;11.07;;;5.60;;
72801;SDS011;61891;55.818;37.084;2023-08-24T03:31:26;8.48;;;5.20;;
72801;SDS011;61891;55.818;37.084;2023-08-24T03:33:53;7.78;;;5.10;;
72801;SDS011;61891;55.818;37.084;2023-08-24T03:38:45;8.48;;;4.93;;
72801;SDS011;61891;55.818;37.084;2023-08-24T03:41:11;10.70;;;5.13;;
72801;SDS011;61891;55.818;37.084;2023-08-24T03:43:36;8.40;;;5.03;;
72801;SDS011;61891;55.818;37.084;2023-08-24T03:46:03;8.52;;;5.38;;
72801;SDS011;61891;55.818;37.084;2023-08-24T03:48:31;8.60;;;4.22;;
72801;SDS011;61891;55.818;37.084;2023-08-24T03:50:58;6.45;;;3.78;;
72801;SDS011;61891;55.818;37.084;2023-08-24T03:53:24;6.30;;;3.85;;
72801;SDS011;61891;55.818;37.084;2023-08-24T03:55:51;6.45;;;3.88;;
72801;SDS011;61891;55.818;37.084;2023-08-24T03:58:19;5.88;;;3.50;;
72801;SDS011;61891;55.818;37.084;2023-08-24T04:00:46;5.43;;;3.38;;
72801;SDS011;61891;55.818;37.084;2023-08-24T04:03:12;4.95;;;3.40;;
72801;SDS011;61891;55.818;37.084;2023-08-24T04:05:38;7.40;;;3.80;;
72801;SDS011;61891;55.818;37.084;2023-08-24T04:08:04;4.72;;;3.50;;
72801;SDS011;61891;55.818;37.084;2023-08-24T04:10:30;5.82;;;3.85;;
72801;SDS011;61891;55.818;37.084;2023-08-24T04:12:58;6.68;;;3.40;;
72801;SDS011;61891;55.818;37.084;2023-08-24T04:15:24;5.80;;;3.75;;
72801;SDS011;61891;55.818;37.084;2023-08-24T04:17:50;8.00;;;4.40;;
72801;SDS011;61891;55.818;37.084;2023-08-24T04:20:16;5.65;;;3.60;;
72801;SDS011;61891;55.818;37.084;2023-08-24T04:22:42;5.82;;;3.58;;
72801;SDS011;61891;55.818;37.084;2023-08-24T04:25:08;5.60;;;4.03;;
72801;SDS011;61891;55.818;37.084;2023-08-24T04:27:34;8.15;;;4.50;;
72801;SDS011;61891;55.818;37.084;2023-08-24T04:30:01;6.00;;;4.00;;
72801;SDS011;61891;55.818;37.084;2023-08-24T04:32:32;4.63;;;3.42;;
72801;SDS011;61891;55.818;37.084;2023-08-24T04:35:01;4.40;;;2.95;;
72801;SDS011;61891;55.818;37.084;2023-08-24T04:37:30;5.35;;;3.60;;
72801;SDS011;61891;55.818;37.084;2023-08-24T04:39:55;5.95;;;3.75;;
72801;SDS011;61891;55.818;37.084;2023-08-24T04:42:21;5.57;;;3.13;;
72801;SDS011;61891;55.818;37.084;2023-08-24T04:44:47;5.28;;;3.63;;
72801;SDS011;61891;55.818;37.084;2023-08-24T04:47:13;5.10;;;3.55;;
72801;SDS011;61891;55.818;37.084;2023-08-24T04:49:39;5.18;;;3.55;;
72801;SDS011;61891;55.818;37.084;2023-08-24T04:52:04;5.68;;;2.90;;
72801;SDS011;61891;55.818;37.084;2023-08-24T04:54:30;4.57;;;2.90;;
72801;SDS011;61891;55.818;37.084;2023-08-24T04:56:56;5.45;;;3.20;;
72801;SDS011;61891;55.818;37.084;2023-08-24T04:59:21;4.72;;;3.13;;
72801;SDS011;61891;55.818;37.084;2023-08-24T05:01:47;6.88;;;3.22;;
72801;SDS011;61891;55.818;37.084;2023-08-24T05:04:13;4.50;;;3.13;;
72801;SDS011;61891;55.818;37.084;2023-08-24T05:06:39;6.10;;;3.15;;
72801;SDS011;61891;55.818;37.084;2023-08-24T05:11:30;4.30;;;2.80;;
72801;SDS011;61891;55.818;37.084;2023-08-24T05:13:56;5.97;;;4.03;;
72801;SDS011;61891;55.818;37.084;2023-08-24T05:16:22;5.63;;;2.70;;
72801;SDS011;61891;55.818;37.084;2023-08-24T05:18:48;4.65;;;2.95;;
72801;SDS011;61891;55.818;37.084;2023-08-24T05:21:14;5.80;;;2.90;;
72801;SDS011;61891;55.818;37.084;2023-08-24T05:23:40;3.92;;;2.72;;
72801;SDS011;61891;55.818;37.084;2023-08-24T05:26:06;4.38;;;2.72;;
72801;SDS011;61891;55.818;37.084;2023-08-24T05:28:32;4.05;;;2.85;;
72801;SDS011;61891;55.818;37.084;2023-08-24T05:30:58;4.60;;;3.20;;
72801;SDS011;61891;55.818;37.084;2023-08-24T05:33:24;8.48;;;3.03;;
72801;SDS011;61891;55.818;37.084;2023-08-24T05:35:51;4.55;;;3.08;;
72801;SDS011;61891;55.818;37.084;2023-08-24T05:38:17;5.05;;;3.00;;
72801;SDS011;61891;55.818;37.084;2023-08-24T05:40:46;4.28;;;2.53;;
72801;SDS011;61891;55.818;37.084;2023-08-24T05:43:13;4.72;;;2.97;;
72801;SDS011;61891;55.818;37.084;2023-08-24T05:45:39;3.67;;;2.65;;
72801;SDS011;61891;55.818;37.084;2023-08-24T05:48:06;4.47;;;2.70;;
72801;SDS011;61891;55.818;37.084;2023-08-24T05:50:33;4.28;;;2.85;;
72801;SDS011;61891;55.818;37.084;2023-08-24T05:53:00;5.15;;;2.92;;
72801;SDS011;61891;55.818;37.084;2023-08-24T05:55:27;4.43;;;3.00;;
72801;SDS011;61891;55.818;37.084;2023-08-24T05:57:52;4.72;;;2.80;;
72801;SDS011;61891;55.818;37.084;2023-08-24T06:00:18;3.60;;;2.58;;
72801;SDS011;61891;55.818;37.084;2023-08-24T06:02:45;3.65;;;2.47;;
72801;SDS011;61891;55.818;37.084;2023-08-24T06:05:11;3.47;;;2.78;;
72801;SDS011;61891;55.818;37.084;2023-08-24T06:07:36;4.13;;;3.03;;
72801;SDS011;61891;55.818;37.084;2023-08-24T06:10:03;4.15;;;2.97;;
72801;SDS011;61891;55.818;37.084;2023-08-24T06:12:32;3.92;;;2.80;;
72801;SDS011;61891;55.818;37.084;2023-08-24T06:14:58;4.82;;;3.42;;
72801;SDS011;61891;55.818;37.084;2023-08-24T06:17:31;6.32;;;3.42;;
72801;SDS011;61891;55.818;37.084;2023-08-24T06:19:57;5.20;;;3.10;;
72801;SDS011;61891;55.818;37.084;2023-08-24T06:22:22;5.00;;;3.47;;
72801;SDS011;61891;55.818;37.084;2023-08-24T06:24:48;5.00;;;3.60;;
72801;SDS011;61891;55.818;37.084;2023-08-24T06:27:14;4.75;;;3.53;;
72801;SDS011;61891;55.818;37.084;2023-08-24T06:29:43;5.00;;;3.25;;
72801;SDS011;61891;55.818;37.084;2023-08-24T06:32:09;6.78;;;3.88;;
72801;SDS011;61891;55.818;37.084;2023-08-24T06:34:34;5.95;;;3.67;;
72801;SDS011;61891;55.818;37.084;2023-08-24T06:37:01;5.57;;;3.42;;
72801;SDS011;61891;55.818;37.084;2023-08-24T06:39:28;4.45;;;3.38;;
72801;SDS011;61891;55.818;37.084;2023-08-24T06:41:54;4.68;;;3.65;;
72801;SDS011;61891;55.818;37.084;2023-08-24T06:44:24;4.60;;;4.05;;
72801;SDS011;61891;55.818;37.084;2023-08-24T06:46:50;4.75;;;3.70;;
72801;SDS011;61891;55.818;37.084;2023-08-24T06:49:15;4.63;;;3.63;;
72801;SDS011;61891;55.818;37.084;2023-08-24T06:51:41;5.00;;;3.70;;
72801;SDS011;61891;55.818;37.084;2023-08-24T06:54:07;5.90;;;4.03;;
72801;SDS011;61891;55.818;37.084;2023-08-24T06:56:33;6.72;;;3.90;;
72801;SDS011;61891;55.818;37.084;2023-08-24T06:58:58;6.35;;;4.15;;
72801;SDS011;61891;55.818;37.084;2023-08-24T07:01:24;5.13;;;4.20;;
72801;SDS011;61891;55.818;37.084;2023-08-24T07:03:51;6.30;;;4.47;;
72801;SDS011;61891;55.818;37.084;2023-08-24T07:06:17;6.25;;;4.45;;
72801;SDS011;61891;55.818;37.084;2023-08-24T07:08:43;6.55;;;5.05;;
72801;SDS011;61891;55.818;37.084;2023-08-24T07:11:08;7.53;;;5.32;;
72801;SDS011;61891;55.818;37.084;2023-08-24T07:13:34;7.30;;;4.95;;
72801;SDS011;61891;55.818;37.084;2023-08-24T07:16:00;10.15;;;5.72;;
72801;SDS011;61891;55.818;37.084;2023-08-24T07:18:28;6.55;;;5.07;;
72801;SDS011;61891;55.818;37.084;2023-08-24T07:20:54;7.25;;;4.70;;
72801;SDS011;61891;55.818;37.084;2023-08-24T07:23:20;7.15;;;5.00;;
72801;SDS011;61891;55.818;37.084;2023-08-24T07:25:45;7.25;;;4.85;;
72801;SDS011;61891;55.818;37.084;2023-08-24T07:28:11;7.78;;;5.32;;
72801;SDS011;61891;55.818;37.084;2023-08-24T07:30:37;7.00;;;5.15;;
72801;SDS011;61891;55.818;37.084;2023-08-24T07:33:03;9.07;;;5.53;;
72801;SDS011;61891;55.818;37.084;2023-08-24T07:35:29;7.13;;;5.15;;
72801;SDS011;61891;55.818;37.084;2023-08-24T07:37:55;9.38;;;5.68;;
72801;SDS011;61891;55.818;37.084;2023-08-24T07:40:22;8.57;;;5.43;;
72801;SDS011;61891;55.818;37.084;2023-08-24T07:42:48;8.40;;;5.40;;
72801;SDS011;61891;55.818;37.084;2023-08-24T07:45:16;7.55;;;5.25;;
72801;SDS011;61891;55.818;37.084;2023-08-24T07:50:09;6.80;;;5.07;;
72801;SDS011;61891;55.818;37.084;2023-08-24T07:52:36;7.57;;;5.03;;
72801;SDS011;61891;55.818;37.084;2023-08-24T07:55:03;7.03;;;4.95;;
72801;SDS011;61891;55.818;37.084;2023-08-24T07:57:30;7.07;;;4.70;;
72801;SDS011;61891;55.818;37.084;2023-08-24T07:59:59;7.57;;;4.50;;
72801;SDS011;61891;55.818;37.084;2023-08-24T08:02:24;7.30;;;4.72;;
72801;SDS011;61891;55.818;37.084;2023-08-24T08:04:50;7.93;;;4.50;;
72801;SDS011;61891;55.818;37.084;2023-08-24T08:07:16;6.80;;;4.22;;
72801;SDS011;61891;55.818;37.084;2023-08-24T08:09:42;5.90;;;4.25;;
72801;SDS011;61891;55.818;37.084;2023-08-24T08:12:08;7.15;;;4.55;;
72801;SDS011;61891;55.818;37.084;2023-08-24T08:14:34;6.53;;;4.43;;
72801;SDS011;61891;55.818;37.084;2023-08-24T08:16:59;8.50;;;5.28;;
72801;SDS011;61891;55.818;37.084;2023-08-24T08:19:25;7.78;;;4.97;;
72801;SDS011;61891;55.818;37.084;2023-08-24T08:21:53;8.05;;;5.13;;
72801;SDS011;61891;55.818;37.084;2023-08-24T08:24:19;7.28;;;5.00;;
72801;SDS011;61891;55.818;37.084;2023-08-24T08:26:45;8.85;;;5.53;;
72801;SDS011;61891;55.818;37.084;2023-08-24T08:29:10;7.43;;;5.05;;
72801;SDS011;61891;55.818;37.084;2023-08-24T08:31:36;8.95;;;5.18;;
72801;SDS011;61891;55.818;37.084;2023-08-24T08:34:02;9.68;;;5.05;;
72801;SDS011;61891;55.818;37.084;2023-08-24T08:36:30;8.88;;;5.65;;
72801;SDS011;61891;55.818;37.084;2023-08-24T08:38:58;8.77;;;5.28;;
72801;SDS011;61891;55.818;37.084;2023-08-24T08:41:24;8.60;;;5.47;;
72801;SDS011;61891;55.818;37.084;2023-08-24T08:43:55;7.78;;;5.63;;
72801;SDS011;61891;55.818;37.084;2023-08-24T08:46:21;7.72;;;4.53;;
72801;SDS011;61891;55.818;37.084;2023-08-24T08:48:47;6.65;;;4.78;;
72801;SDS011;61891;55.818;37.084;2023-08-24T08:51:16;6.68;;;4.75;;
72801;SDS011;61891;55.818;37.084;2023-08-24T08:53:43;7.75;;;4.40;;
72801;SDS011;61891;55.818;37.084;2023-08-24T08:58:34;6.95;;;4.57;;
72801;SDS011;61891;55.818;37.084;2023-08-24T09:01:05;5.75;;;4.28;;
72801;SDS011;61891;55.818;37.084;2023-08-24T09:03:32;6.68;;;4.82;;
72801;SDS011;61891;55.818;37.084;2023-08-24T09:05:58;5.45;;;3.95;;
72801;SDS011;61891;55.818;37.084;2023-08-24T09:08:25;6.25;;;4.43;;
72801;SDS011;61891;55.818;37.084;2023-08-24T09:10:51;6.10;;;4.35;;
72801;SDS011;61891;55.818;37.084;2023-08-24T09:13:17;6.72;;;4.63;;
72801;SDS011;61891;55.818;37.084;2023-08-24T09:15:43;5.43;;;4.25;;
72801;SDS011;61891;55.818;37.084;2023-08-24T09:18:09;6.07;;;4.10;;
72801;SDS011;61891;55.818;37.084;2023-08-24T09:20:35;7.18;;;4.05;;
72801;SDS011;61891;55.818;37.084;2023-08-24T09:25:27;5.55;;;4.18;;
72801;SDS011;61891;55.818;37.084;2023-08-24T09:27:56;5.47;;;3.70;;
72801;SDS011;61891;55.818;37.084;2023-08-24T09:30:23;8.05;;;3.92;;
72801;SDS011;61891;55.818;37.084;2023-08-24T09:32:54;5.57;;;3.92;;
72801;SDS011;61891;55.818;37.084;2023-08-24T09:35:20;5.15;;;4.15;;
72801;SDS011;61891;55.818;37.084;2023-08-24T09:37:46;6.07;;;4.05;;
72801;SDS011;61891;55.818;37.084;2023-08-24T09:40:15;4.93;;;4.15;;
72801;SDS011;61891;55.818;37.084;2023-08-24T09:42:41;5.63;;;3.97;;
72801;SDS011;61891;55.818;37.084;2023-08-24T09:45:12;4.82;;;3.83;;
72801;SDS011;61891;55.818;37.084;2023-08-24T09:47:39;4.63;;;3.75;;
72801;SDS011;61891;55.818;37.084;2023-08-24T09:50:11;4.22;;;3.80;;
72801;SDS011;61891;55.818;37.084;2023-08-24T09:52:36;6.50;;;3.95;;
72801;SDS011;61891;55.818;37.084;2023-08-24T09:55:06;5.38;;;4.25;;
72801;SDS011;61891;55.818;37.084;2023-08-24T09:57:38;4.50;;;4.03;;
72801;SDS011;61891;55.818;37.084;2023-08-24T10:00:09;4.45;;;4.00;;
72801;SDS011;61891;55.818;37.084;2023-08-24T10:02:36;5.53;;;4.55;;
72801;SDS011;61891;55.818;37.084;2023-08-24T10:05:07;4.95;;;4.22;;
72801;SDS011;61891;55.818;37.084;2023-08-24T10:07:33;5.13;;;4.18;;
72801;SDS011;61891;55.818;37.084;2023-08-24T10:10:03;5.32;;;3.88;;
72801;SDS011;61891;55.818;37.084;2023-08-24T10:12:36;4.60;;;3.75;;
72801;SDS011;61891;55.818;37.084;2023-08-24T10:15:09;5.07;;;4.30;;
72801;SDS011;61891;55.818;37.084;2023-08-24T10:17:38;4.50;;;3.60;;
72801;SDS011;61891;55.818;37.084;2023-08-24T10:20:05;4.97;;;3.65;;
72801;SDS011;61891;55.818;37.084;2023-08-24T10:22:35;4.63;;;3.60;;
72801;SDS011;61891;55.818;37.084;2023-08-24T10:25:02;4.63;;;3.60;;
72801;SDS011;61891;55.818;37.084;2023-08-24T10:27:31;5.30;;;3.78;;
72801;SDS011;61891;55.818;37.084;2023-08-24T10:29:57;4.70;;;3.53;;
72801;SDS011;61891;55.818;37.084;2023-08-24T10:32:25;5.10;;;3.75;;
72801;SDS011;61891;55.818;37.084;2023-08-24T10:34:52;6.15;;;3.90;;
72801;SDS011;61891;55.818;37.084;2023-08-24T10:39:49;5.32;;;3.10;;
72801;SDS011;61891;55.818;37.084;2023-08-24T10:44:44;6.97;;;3.10;;
72801;SDS011;61891;55.818;37.084;2023-08-24T10:49:44;5.15;;;3.40;;
72801;SDS011;61891;55.818;37.084;2023-08-24T10:52:23;6.53;;;3.10;;
72801;SDS011;61891;55.818;37.084;2023-08-24T10:54:53;3.95;;;2.85;;
72801;SDS011;61891;55.818;37.084;2023-08-24T10:57:20;3.00;;;2.47;;
72801;SDS011;61891;55.818;37.084;2023-08-24T11:00:01;2.97;;;2.65;;
72801;SDS011;61891;55.818;37.084;2023-08-24T11:02:46;4.38;;;2.72;;
72801;SDS011;61891;55.818;37.084;2023-08-24T11:10:24;4.90;;;3.17;;
72801;SDS011;61891;55.818;37.084;2023-08-24T11:15:29;4.35;;;2.92;;
72801;SDS011;61891;55.818;37.084;2023-08-24T11:20:51;3.85;;;2.70;;
72801;SDS011;61891;55.818;37.084;2023-08-24T11:23:27;3.50;;;2.83;;
72801;SDS011;61891;55.818;37.084;2023-08-24T11:28:23;3.83;;;2.78;;
72801;SDS011;61891;55.818;37.084;2023-08-24T11:30:51;4.22;;;2.47;;
72801;SDS011;61891;55.818;37.084;2023-08-24T11:33:38;3.75;;;2.72;;
72801;SDS011;61891;55.818;37.084;2023-08-24T11:36:03;5.65;;;2.53;;
72801;SDS011;61891;55.818;37.084;2023-08-24T11:38:36;3.80;;;2.83;;
72801;SDS011;61891;55.818;37.084;2023-08-24T11:41:11;3.60;;;2.42;;
72801;SDS011;61891;55.818;37.084;2023-08-24T11:43:38;3.97;;;2.20;;
72801;SDS011;61891;55.818;37.084;2023-08-24T11:46:04;4.15;;;2.55;;
72801;SDS011;61891;55.818;37.084;2023-08-24T11:50:59;4.03;;;2.55;;
72801;SDS011;61891;55.818;37.084;2023-08-24T11:53:25;3.65;;;2.50;;
72801;SDS011;61891;55.818;37.084;2023-08-24T11:55:52;3.53;;;2.38;;
72801;SDS011;61891;55.818;37.084;2023-08-24T11:58:18;5.47;;;2.88;;
72801;SDS011;61891;55.818;37.084;2023-08-24T12:00:45;5.65;;;2.15;;
72801;SDS011;61891;55.818;37.084;2023-08-24T12:03:12;3.10;;;2.45;;
72801;SDS011;61891;55.818;37.084;2023-08-24T12:05:38;2.47;;;1.83;;
72801;SDS011;61891;55.818;37.084;2023-08-24T12:10:30;3.65;;;2.20;;
72801;SDS011;61891;55.818;37.084;2023-08-24T12:13:06;3.90;;;1.85;;
72801;SDS011;61891;55.818;37.084;2023-08-24T12:15:36;3.63;;;2.30;;
72801;SDS011;61891;55.818;37.084;2023-08-24T12:18:09;5.10;;;2.42;;
72801;SDS011;61891;55.818;37.084;2023-08-24T12:20:39;2.83;;;2.10;;
72801;SDS011;61891;55.818;37.084;2023-08-24T12:23:06;3.38;;;1.95;;
72801;SDS011;61891;55.818;37.084;2023-08-24T12:25:42;4.22;;;2.00;;
72801;SDS011;61891;55.818;37.084;2023-08-24T12:28:12;3.33;;;2.20;;
72801;SDS011;61891;55.818;37.084;2023-08-24T12:30:45;3.88;;;1.83;;
72801;SDS011;61891;55.818;37.084;2023-08-24T12:33:25;1.95;;;1.65;;
72801;SDS011;61891;55.818;37.084;2023-08-24T12:35:55;3.67;;;1.88;;
72801;SDS011;61891;55.818;37.084;2023-08-24T12:38:22;2.45;;;2.00;;
72801;SDS011;61891;55.818;37.084;2023-08-24T12:40:49;2.10;;;1.88;;
72801;SDS011;61891;55.818;37.084;2023-08-24T12:43:15;3.65;;;1.73;;
72801;SDS011;61891;55.818;37.084;2023-08-24T12:45:41;4.72;;;1.80;;
72801;SDS011;61891;55.818;37.084;2023-08-24T12:48:07;3.60;;;1.95;;
72801;SDS011;61891;55.818;37.084;2023-08-24T12:50:34;2.83;;;1.83;;
72801;SDS011;61891;55.818;37.084;2023-08-24T12:53:01;2.55;;;1.65;;
72801;SDS011;61891;55.818;37.084;2023-08-24T12:55:31;2.85;;;1.98;;
72801;SDS011;61891;55.818;37.084;2023-08-24T12:57:58;3.10;;;1.95;;
72801;SDS011;61891;55.818;37.084;2023-08-24T13:00:24;2.50;;;1.50;;
72801;SDS011;61891;55.818;37.084;2023-08-24T13:02:50;1.98;;;1.77;;
72801;SDS011;61891;55.818;37.084;2023-08-24T13:05:16;3.10;;;1.60;;
72801;SDS011;61891;55.818;37.084;2023-08-24T13:07:42;3.17;;;1.75;;
72801;SDS011;61891;55.818;37.084;2023-08-24T13:10:08;3.17;;;1.67;;
72801;SDS011;61891;55.818;37.084;2023-08-24T13:43:50;2.28;;;1.52;;
72801;SDS011;61891;55.818;37.084;2023-08-24T13:49:25;3.97;;;1.90;;
72801;SDS011;61891;55.818;37.084;2023-08-24T14:05:43;3.10;;;1.63;;
72801;SDS011;61891;55.818;37.084;2023-08-24T14:08:11;5.68;;;1.80;;
72801;SDS011;61891;55.818;37.084;2023-08-24T14:13:02;2.83;;;1.70;;
72801;SDS011;61891;55.818;37.084;2023-08-24T14:15:28;3.90;;;1.63;;
72801;SDS011;61891;55.818;37.084;2023-08-24T14:20:19;3.63;;;1.83;;
72801;SDS011;61891;55.818;37.084;2023-08-24T14:22:45;5.35;;;1.95;;
72801;SDS011;61891;55.818;37.084;2023-08-24T14:25:14;3.30;;;2.10;;
72801;SDS011;61891;55.818;37.084;2023-08-24T14:27:40;2.33;;;1.70;;
72801;SDS011;61891;55.818;37.084;2023-08-24T14:30:07;4.15;;;1.90;;
72801;SDS011;61891;55.818;37.084;2023-08-24T14:32:33;2.67;;;1.60;;
72801;SDS011;61891;55.818;37.084;2023-08-24T14:34:59;3.20;;;1.95;;
72801;SDS011;61891;55.818;37.084;2023-08-24T14:39:50;4.10;;;2.22;;
72801;SDS011;61891;55.818;37.084;2023-08-24T14:42:16;4.85;;;1.90;;
72801;SDS011;61891;55.818;37.084;2023-08-24T14:44:42;4.10;;;2.08;;
72801;SDS011;61891;55.818;37.084;2023-08-24T14:49:33;4.93;;;2.00;;
72801;SDS011;61891;55.818;37.084;2023-08-24T14:51:59;5.22;;;2.40;;
72801;SDS011;61891;55.818;37.084;2023-08-24T14:54:25;4.75;;;2.05;;
72801;SDS011;61891;55.818;37.084;2023-08-24T14:56:50;6.70;;;2.20;;
72801;SDS011;61891;55.818;37.084;2023-08-24T14:59:16;3.08;;;1.98;;
72801;SDS011;61891;55.818;37.084;2023-08-24T15:01:42;7.10;;;2.10;;
72801;SDS011;61891;55.818;37.084;2023-08-24T15:04:08;2.97;;;1.95;;
72801;SDS011;61891;55.818;37.084;2023-08-24T15:06:34;4.13;;;2.08;;
72801;SDS011;61891;55.818;37.084;2023-08-24T15:08:59;5.07;;;1.92;;
72801;SDS011;61891;55.818;37.084;2023-08-24T15:11:25;5.88;;;2.20;;
72801;SDS011;61891;55.818;37.084;2023-08-24T15:13:51;3.90;;;1.95;;
72801;SDS011;61891;55.818;37.084;2023-08-24T15:16:18;2.42;;;1.70;;
72801;SDS011;61891;55.818;37.084;2023-08-24T15:18:44;4.85;;;1.92;;
72801;SDS011;61891;55.818;37.084;2023-08-24T15:21:31;4.78;;;1.80;;
72801;SDS011;61891;55.818;37.084;2023-08-24T15:24:05;2.92;;;1.75;;
72801;SDS011;61891;55.818;37.084;2023-08-24T15:26:30;4.78;;;1.90;;
72801;SDS011;61891;55.818;37.084;2023-08-24T15:29:07;5.00;;;1.83;;
72801;SDS011;61891;55.818;37.084;2023-08-24T15:31:37;5.80;;;2.00;;
72801;SDS011;61891;55.818;37.084;2023-08-24T15:34:03;6.60;;;1.63;;
72801;SDS011;61891;55.818;37.084;2023-08-24T15:36:29;4.65;;;2.15;;
72801;SDS011;61891;55.818;37.084;2023-08-24T15:38:55;8.32;;;2.60;;
72801;SDS011;61891;55.818;37.084;2023-08-24T15:41:21;4.93;;;1.67;;
72801;SDS011;61891;55.818;37.084;2023-08-24T15:43:46;3.28;;;1.70;;
72801;SDS011;61891;55.818;37.084;2023-08-24T15:46:12;5.07;;;2.33;;
72801;SDS011;61891;55.818;37.084;2023-08-24T15:48:38;3.05;;;1.73;;
72801;SDS011;61891;55.818;37.084;2023-08-24T15:51:05;3.92;;;2.00;;
72801;SDS011;61891;55.818;37.084;2023-08-24T15:53:31;4.38;;;2.70;;
72801;SDS011;61891;55.818;37.084;2023-08-24T15:55:57;9.20;;;4.32;;
72801;SDS011;61891;55.818;37.084;2023-08-24T15:58:23;8.52;;;3.40;;
72801;SDS011;61891;55.818;37.084;2023-08-24T16:00:50;7.40;;;3.58;;
72801;SDS011;61891;55.818;37.084;2023-08-24T16:03:17;8.15;;;3.88;;
72801;SDS011;61891;55.818;37.084;2023-08-24T16:10:06;8.50;;;3.97;;
72801;SDS011;61891;55.818;37.084;2023-08-24T16:17:59;5.10;;;2.20;;
72801;SDS011;61891;55.818;37.084;2023-08-24T16:20:32;5.13;;;2.28;;
72801;SDS011;61891;55.818;37.084;2023-08-24T16:22:58;3.65;;;2.10;;
72801;SDS011;61891;55.818;37.084;2023-08-24T16:25:24;4.38;;;3.38;;
72801;SDS011;61891;55.818;37.084;2023-08-24T16:28:51;4.85;;;2.40;;
72801;SDS011;61891;55.818;37.084;2023-08-24T16:32:19;2.85;;;2.45;;